createdAt,value
2022-09-12T00:01:22.605Z,11.88
2022-09-12T00:03:53.374Z,9.68
2022-09-12T00:06:23.933Z,6.88
2022-09-12T00:09:02.200Z,13.27
2022-09-12T00:11:29.644Z,14.27
2022-09-12T00:14:01.505Z,13.32
2022-09-12T00:16:31.987Z,18.85
2022-09-12T00:18:59.473Z,10.18
2022-09-12T00:21:26.626Z,14.98
2022-09-12T00:23:54.382Z,10.30
2022-09-12T00:26:22.157Z,7.35
2022-09-12T00:28:50.107Z,13.63
2022-09-12T00:31:24.406Z,8.02
2022-09-12T00:33:52.263Z,8.75
2022-09-12T00:36:22.039Z,9.63
2022-09-12T00:38:49.801Z,5.57
2022-09-12T00:41:38.910Z,5.45
2022-09-12T00:44:24.628Z,9.52
2022-09-12T00:47:02.401Z,8.13
2022-09-12T00:49:35.013Z,7.03
2022-09-12T00:52:20.829Z,10.88
2022-09-12T00:54:57.187Z,6.05
2022-09-12T00:57:28.469Z,6.50
2022-09-12T01:00:14.109Z,5.28
2022-09-12T01:02:45.954Z,6.35
2022-09-12T01:05:14.257Z,10.77
2022-09-12T01:07:42.048Z,4.75
2022-09-12T01:10:10.175Z,6.05
2022-09-12T01:12:40.463Z,6.55
2022-09-12T01:15:08.742Z,3.67
2022-09-12T01:18:00.614Z,10.02
2022-09-12T01:20:45.883Z,4.10
2022-09-12T01:23:13.000Z,4.30
2022-09-12T01:26:01.350Z,6.50
2022-09-12T01:28:40.255Z,6.30
2022-09-12T01:31:57.156Z,8.02
2022-09-12T01:34:37.609Z,8.82
2022-09-12T01:37:22.946Z,10.50
2022-09-12T01:39:50.480Z,5.40
2022-09-12T01:42:55.016Z,6.35
2022-09-12T01:48:11.494Z,4.82
2022-09-12T01:50:47.967Z,5.68
2022-09-12T01:53:26.238Z,7.28
2022-09-12T01:56:22.766Z,6.32
2022-09-12T01:59:31.124Z,7.57
2022-09-12T02:02:06.580Z,6.47
2022-09-12T02:04:48.136Z,5.93
2022-09-12T02:07:25.996Z,9.60
2022-09-12T02:09:59.784Z,5.25
2022-09-12T02:12:32.261Z,5.65
2022-09-12T02:15:03.939Z,6.45
2022-09-12T02:17:38.884Z,5.57
2022-09-12T02:20:48.393Z,6.70
2022-09-12T02:23:23.487Z,4.38
2022-09-12T02:25:55.137Z,6.32
2022-09-12T02:28:28.022Z,5.78
2022-09-12T02:31:14.663Z,5.72
2022-09-12T02:33:44.459Z,4.60
2022-09-12T02:36:29.923Z,6.80
2022-09-12T02:38:57.070Z,6.63
2022-09-12T02:41:24.262Z,5.18
2022-09-12T02:43:53.219Z,5.47
2022-09-12T02:46:32.580Z,6.47
2022-09-12T02:48:59.708Z,5.20
2022-09-12T02:51:27.530Z,5.00
2022-09-12T02:53:54.702Z,8.32
2022-09-12T02:56:28.263Z,2.00
2022-09-12T03:01:47.059Z,7.55
2022-09-12T03:04:35.865Z,4.07
2022-09-12T03:07:15.532Z,4.97
2022-09-12T03:10:20.256Z,4.38
2022-09-12T03:13:06.652Z,4.55
2022-09-12T03:16:04.025Z,4.85
2022-09-12T03:19:12.339Z,4.03
2022-09-12T03:22:22.704Z,4.97
2022-09-12T03:24:58.698Z,7.85
2022-09-12T03:27:39.777Z,5.88
2022-09-12T03:30:08.745Z,6.25
2022-09-12T03:32:49.123Z,4.75
2022-09-12T03:35:22.714Z,4.40
2022-09-12T03:37:51.782Z,4.25
2022-09-12T03:40:18.828Z,2.85
2022-09-12T03:42:45.913Z,3.30
2022-09-12T03:45:13.077Z,5.47
2022-09-12T03:47:40.525Z,3.88
2022-09-12T03:50:08.271Z,6.78
2022-09-12T03:52:35.431Z,7.45
2022-09-12T03:55:02.481Z,3.75
2022-09-12T03:57:29.827Z,4.50
2022-09-12T03:59:56.881Z,2.92
2022-09-12T04:02:24.017Z,4.03
2022-09-12T04:04:51.315Z,4.68
2022-09-12T04:07:18.471Z,6.50
2022-09-12T04:09:45.507Z,4.13
2022-09-12T04:12:14.560Z,10.95
2022-09-12T04:14:41.663Z,5.20
2022-09-12T04:17:09.201Z,5.32
2022-09-12T04:19:36.275Z,6.30
2022-09-12T04:22:04.092Z,3.60
2022-09-12T04:24:31.147Z,5.95
2022-09-12T04:26:58.672Z,4.25
2022-09-12T04:29:25.745Z,7.70
2022-09-12T04:31:52.801Z,6.95
2022-09-12T04:34:20.174Z,5.35
2022-09-12T04:36:47.281Z,7.93
2022-09-12T04:39:14.482Z,9.82
2022-09-12T04:41:44.750Z,4.97
2022-09-12T04:44:14.088Z,9.98
2022-09-12T04:46:45.222Z,5.93
2022-09-12T04:49:13.461Z,9.35
2022-09-12T04:51:42.330Z,7.93
2022-09-12T04:54:25.555Z,8.43
2022-09-12T04:56:53.062Z,8.23
2022-09-12T04:59:22.664Z,9.85
2022-09-12T05:01:50.163Z,11.60
2022-09-12T05:04:17.837Z,12.18
2022-09-12T05:06:47.318Z,6.32
2022-09-12T05:09:14.799Z,6.95
2022-09-12T05:14:32.900Z,6.22
2022-09-12T05:17:02.034Z,7.35
2022-09-12T05:19:30.879Z,7.38
2022-09-12T05:21:59.396Z,8.07
2022-09-12T05:24:26.676Z,3.22
2022-09-12T05:26:53.825Z,6.13
2022-09-12T05:29:20.940Z,5.78
2022-09-12T05:31:50.476Z,6.10
2022-09-12T05:34:17.567Z,5.47
2022-09-12T05:36:44.770Z,6.72
2022-09-12T05:39:12.463Z,7.25
2022-09-12T05:41:39.555Z,5.00
2022-09-12T05:44:11.481Z,7.95
2022-09-12T05:46:40.492Z,6.72
2022-09-12T05:49:13.414Z,5.28
2022-09-12T05:51:43.496Z,6.95
2022-09-12T05:54:12.668Z,5.88
2022-09-12T05:56:42.600Z,5.38
2022-09-12T05:59:18.770Z,3.33
2022-09-12T06:01:46.653Z,4.75
2022-09-12T06:04:13.889Z,5.82
2022-09-12T06:06:45.366Z,10.07
2022-09-12T06:09:14.752Z,5.70
2022-09-12T06:11:42.619Z,6.55
2022-09-12T06:14:12.643Z,4.28
2022-09-12T06:16:40.683Z,7.13
2022-09-12T06:19:13.416Z,9.18
2022-09-12T06:21:40.627Z,4.50
2022-09-12T06:24:08.000Z,6.18
2022-09-12T06:26:35.385Z,9.20
2022-09-12T06:29:03.392Z,4.90
2022-09-12T06:31:33.682Z,7.03
2022-09-12T06:34:07.042Z,6.90
2022-09-12T06:36:38.623Z,4.75
2022-09-12T06:39:12.724Z,7.45
2022-09-12T06:41:43.819Z,8.95
2022-09-12T06:44:15.953Z,11.13
2022-09-12T06:46:43.329Z,9.57
2022-09-12T06:49:11.256Z,8.02
2022-09-12T06:51:38.367Z,7.45
2022-09-12T06:54:06.141Z,5.03
2022-09-12T06:56:33.354Z,6.15
2022-09-12T06:59:00.401Z,4.43
2022-09-12T07:01:29.583Z,5.18
2022-09-12T07:03:59.623Z,4.40
2022-09-12T07:06:33.021Z,6.20
2022-09-12T07:09:01.399Z,11.05
2022-09-12T07:11:34.114Z,32.67
2022-09-12T07:14:03.700Z,48.27
2022-09-12T07:16:31.079Z,66.47
2022-09-12T07:19:00.462Z,34.03
2022-09-12T07:21:27.941Z,38.17
2022-09-12T07:23:58.430Z,39.00
2022-09-12T07:26:27.691Z,29.58
2022-09-12T07:29:07.839Z,17.33
2022-09-12T07:31:40.504Z,19.02
2022-09-12T07:34:07.705Z,19.50
2022-09-12T07:36:35.438Z,16.20
2022-09-12T07:39:02.619Z,17.45
2022-09-12T07:41:31.598Z,12.40
2022-09-12T07:44:00.929Z,13.55
2022-09-12T07:46:29.974Z,9.90
2022-09-12T07:48:58.469Z,12.77
2022-09-12T07:51:27.138Z,12.98
2022-09-12T07:53:54.586Z,17.77
2022-09-12T07:56:24.045Z,11.50
2022-09-12T07:58:53.254Z,11.23
2022-09-12T08:01:24.061Z,15.18
2022-09-12T08:03:56.064Z,17.52
2022-09-12T08:06:25.103Z,13.02
2022-09-12T08:08:54.346Z,13.77
2022-09-12T08:11:22.699Z,14.30
2022-09-12T08:13:55.288Z,14.85
2022-09-12T08:16:25.515Z,14.73
2022-09-12T08:18:53.134Z,17.02
2022-09-12T08:21:22.524Z,15.25
2022-09-12T08:23:54.563Z,18.65
2022-09-12T08:26:21.918Z,15.57
2022-09-12T08:28:49.515Z,17.70
2022-09-12T08:31:18.733Z,16.13
2022-09-12T08:33:46.436Z,17.10
2022-09-12T08:36:16.353Z,15.30
2022-09-12T08:38:45.850Z,10.52
2022-09-12T08:41:19.154Z,14.07
2022-09-12T08:43:46.294Z,20.52
2022-09-12T08:46:25.650Z,18.27
2022-09-12T08:48:55.959Z,23.23
2022-09-12T08:51:23.254Z,23.67
2022-09-12T08:53:54.729Z,26.15
2022-09-12T08:56:22.349Z,21.98
2022-09-12T08:58:49.601Z,30.77
2022-09-12T09:01:35.387Z,20.17
2022-09-12T09:04:25.741Z,26.30
2022-09-12T09:07:16.109Z,22.83
2022-09-12T09:09:50.635Z,20.52
2022-09-12T09:12:51.246Z,26.45
2022-09-12T09:15:41.197Z,23.65
2022-09-12T09:18:16.970Z,24.35
2022-09-12T09:21:02.450Z,18.50
2022-09-12T09:23:34.136Z,21.17
2022-09-12T09:26:10.996Z,26.90
2022-09-12T09:28:59.721Z,17.30
2022-09-12T09:31:38.893Z,20.00
2022-09-12T09:34:30.387Z,13.80
2022-09-12T09:37:21.304Z,16.95
2022-09-12T09:40:24.743Z,18.58
2022-09-12T09:43:04.311Z,14.68
2022-09-12T09:45:31.717Z,21.15
2022-09-12T09:48:17.717Z,20.27
2022-09-12T09:50:46.287Z,24.50
2022-09-12T09:53:27.023Z,24.25
2022-09-12T09:55:57.016Z,22.55
2022-09-12T09:58:36.744Z,24.60
2022-09-12T10:01:06.775Z,17.05
2022-09-12T10:03:39.362Z,19.02
2022-09-12T10:06:33.249Z,18.63
2022-09-12T10:09:18.823Z,19.33
2022-09-12T10:11:47.196Z,26.10
2022-09-12T10:14:32.338Z,47.97
2022-09-12T10:16:59.986Z,62.05
2022-09-12T10:19:52.693Z,49.55
2022-09-12T10:22:31.921Z,31.58
2022-09-12T10:25:01.381Z,22.30
2022-09-12T10:27:37.442Z,24.83
2022-09-12T10:30:16.652Z,27.67
2022-09-12T10:32:50.894Z,25.67
2022-09-12T10:35:44.133Z,35.70
2022-09-12T10:38:21.829Z,28.57
2022-09-12T10:40:58.210Z,22.85
2022-09-12T10:43:35.728Z,28.27
2022-09-12T10:46:15.046Z,26.00
2022-09-12T10:48:49.613Z,27.63
2022-09-12T10:51:25.599Z,30.30
2022-09-12T10:53:56.738Z,33.83
2022-09-12T10:56:36.420Z,29.23
2022-09-12T10:59:20.315Z,28.40
2022-09-12T11:02:01.687Z,35.20
2022-09-12T11:04:53.639Z,29.65
2022-09-12T11:07:48.654Z,26.38
2022-09-12T11:10:25.704Z,48.97
2022-09-12T11:13:30.931Z,61.08
2022-09-12T11:16:27.792Z,44.08
2022-09-12T11:19:34.536Z,28.05
2022-09-12T11:22:58.261Z,23.55
2022-09-12T11:25:51.891Z,35.25
2022-09-12T11:28:44.125Z,24.88
2022-09-12T11:31:51.661Z,13.57
2022-09-12T11:34:42.551Z,14.63
2022-09-12T11:37:35.119Z,13.30
2022-09-12T11:40:32.234Z,13.98
2022-09-12T11:43:09.825Z,8.30
2022-09-12T11:45:42.147Z,12.73
2022-09-12T11:48:17.032Z,10.45
2022-09-12T11:50:44.125Z,10.82
2022-09-12T11:53:28.102Z,11.38
2022-09-12T11:56:19.117Z,16.20
2022-09-12T11:59:16.282Z,24.70
2022-09-12T12:01:48.749Z,23.52
2022-09-12T12:04:21.317Z,22.27
2022-09-12T12:07:06.456Z,22.58
2022-09-12T12:09:34.228Z,18.08
2022-09-12T12:12:07.099Z,14.57
2022-09-12T12:14:47.245Z,13.02
2022-09-12T12:17:20.201Z,11.55
2022-09-12T12:19:49.127Z,6.55
2022-09-12T12:22:22.818Z,11.27
2022-09-12T12:24:56.013Z,3.63
2022-09-12T12:27:44.594Z,6.78
2022-09-12T12:30:29.973Z,13.85
2022-09-12T12:33:03.406Z,14.00
2022-09-12T12:38:28.233Z,9.40
2022-09-12T12:41:17.752Z,12.68
2022-09-12T12:43:45.850Z,6.95
2022-09-12T12:46:17.637Z,10.40
2022-09-12T12:49:17.056Z,12.00
2022-09-12T12:51:59.370Z,8.30
2022-09-12T12:54:53.069Z,20.42
2022-09-12T12:57:29.147Z,17.48
2022-09-12T12:59:56.551Z,15.20
2022-09-12T13:02:40.212Z,10.70
2022-09-12T13:07:44.892Z,11.23
2022-09-12T13:10:29.691Z,13.00
2022-09-12T13:13:01.905Z,10.77
2022-09-12T13:15:48.216Z,10.80
2022-09-12T13:18:23.709Z,11.55
2022-09-12T13:20:57.515Z,11.85
2022-09-12T13:23:30.541Z,11.85
2022-09-12T13:26:02.592Z,13.63
2022-09-12T13:28:31.499Z,12.50
2022-09-12T13:31:24.975Z,9.25
2022-09-12T13:33:56.176Z,6.45
2022-09-12T13:36:26.288Z,7.75
2022-09-12T13:39:28.209Z,7.60
2022-09-12T13:42:04.241Z,9.63
2022-09-12T13:44:33.172Z,7.13
2022-09-12T13:47:02.040Z,10.00
2022-09-12T13:49:41.188Z,10.07
2022-09-12T13:52:16.108Z,8.68
2022-09-12T13:54:46.119Z,7.32
2022-09-12T13:57:45.600Z,9.20
2022-09-12T14:00:20.366Z,6.88
2022-09-12T14:02:48.740Z,8.00
2022-09-12T14:05:24.588Z,7.40
2022-09-12T14:07:54.742Z,7.80
2022-09-12T14:10:32.205Z,10.10
2022-09-12T14:13:01.418Z,12.05
2022-09-12T14:15:31.579Z,7.32
2022-09-12T14:18:01.861Z,9.60
2022-09-12T14:20:33.694Z,5.93
2022-09-12T14:23:28.172Z,9.07
2022-09-12T14:25:57.357Z,6.70
2022-09-12T14:28:27.620Z,7.57
2022-09-12T14:31:22.541Z,10.70
2022-09-12T14:33:49.649Z,8.23
2022-09-12T14:36:20.127Z,5.63
2022-09-12T14:38:51.094Z,8.52
2022-09-12T14:41:31.193Z,12.93
2022-09-12T14:44:05.691Z,6.20
2022-09-12T14:46:41.819Z,7.22
2022-09-12T14:49:28.349Z,7.75
2022-09-12T14:52:01.453Z,6.20
2022-09-12T14:54:28.555Z,6.93
2022-09-12T14:57:05.010Z,8.23
2022-09-12T14:59:35.078Z,9.98
2022-09-12T15:02:14.167Z,8.50
2022-09-12T15:04:43.600Z,12.35
2022-09-12T15:07:34.175Z,10.18
2022-09-12T15:10:18.568Z,10.25
2022-09-12T15:12:45.689Z,9.77
2022-09-12T15:15:19.258Z,10.05
2022-09-12T15:17:47.198Z,7.15
2022-09-12T15:20:14.742Z,9.75
2022-09-12T15:22:42.672Z,9.00
2022-09-12T15:25:11.305Z,10.45
2022-09-12T15:27:41.166Z,7.40
2022-09-12T15:30:13.927Z,10.70
2022-09-12T15:32:43.812Z,10.27
2022-09-12T15:35:22.950Z,10.95
2022-09-12T15:37:50.938Z,14.20
2022-09-12T15:40:18.356Z,13.85
2022-09-12T15:42:45.501Z,12.70
2022-09-12T15:45:29.555Z,23.50
2022-09-12T15:47:57.429Z,20.67
2022-09-12T15:50:24.725Z,18.77
2022-09-12T15:52:52.555Z,16.33
2022-09-12T15:55:25.445Z,26.08
2022-09-12T15:57:52.619Z,24.30
2022-09-12T16:00:20.744Z,17.63
2022-09-12T16:02:50.668Z,30.20
2022-09-12T16:05:26.380Z,24.10
2022-09-12T16:07:55.374Z,30.42
2022-09-12T16:10:27.459Z,30.50
2022-09-12T16:12:54.939Z,34.85
2022-09-12T16:15:25.172Z,20.17
2022-09-12T16:17:52.703Z,23.73
2022-09-12T16:20:21.183Z,22.88
2022-09-12T16:22:48.767Z,21.27
2022-09-12T16:25:15.983Z,32.05
2022-09-12T16:27:43.456Z,17.08
2022-09-12T16:30:11.418Z,21.90
2022-09-12T16:32:38.629Z,22.98
2022-09-12T16:35:06.517Z,32.10
2022-09-12T16:37:34.978Z,23.33
2022-09-12T16:40:03.738Z,26.13
2022-09-12T16:42:30.906Z,27.25
2022-09-12T16:44:58.182Z,37.72
2022-09-12T16:47:25.331Z,28.42
2022-09-12T16:49:52.419Z,29.25
2022-09-12T16:52:19.665Z,32.88
2022-09-12T16:54:46.714Z,27.70
2022-09-12T16:57:13.910Z,37.63
2022-09-12T16:59:41.000Z,39.80
2022-09-12T17:02:11.038Z,47.63
2022-09-12T17:04:38.178Z,30.17
2022-09-12T17:07:05.487Z,44.10
2022-09-12T17:09:32.678Z,36.60
2022-09-12T17:11:59.924Z,21.83
2022-09-12T17:14:27.300Z,14.55
2022-09-12T17:16:54.478Z,15.38
2022-09-12T17:19:30.205Z,12.80
2022-09-12T17:21:57.992Z,11.88
2022-09-12T17:24:25.909Z,11.77
2022-09-12T17:26:53.896Z,13.63
2022-09-12T17:29:21.710Z,10.02
2022-09-12T17:31:49.152Z,10.57
2022-09-12T17:34:16.733Z,21.60
2022-09-12T17:36:45.515Z,26.23
2022-09-12T17:39:14.218Z,65.25
2022-09-12T17:41:46.186Z,49.42
2022-09-12T17:44:15.385Z,50.95
2022-09-12T17:46:43.046Z,57.20
2022-09-12T17:49:17.761Z,61.28
2022-09-12T17:51:45.375Z,54.22
2022-09-12T17:54:16.055Z,51.10
2022-09-12T17:56:44.637Z,50.78
2022-09-12T17:59:15.756Z,44.53
2022-09-12T18:02:01.710Z,39.25
2022-09-12T18:04:28.984Z,54.25
2022-09-12T18:06:58.014Z,54.28
2022-09-12T18:09:28.498Z,51.30
2022-09-12T18:11:55.864Z,30.75
2022-09-12T18:14:23.658Z,20.42
2022-09-12T18:16:50.743Z,29.30
2022-09-12T18:19:18.554Z,35.20
2022-09-12T18:21:45.950Z,29.05
2022-09-12T18:24:13.442Z,31.02
2022-09-12T18:26:40.902Z,19.40
2022-09-12T18:29:08.203Z,23.40
2022-09-12T18:31:35.582Z,21.80
2022-09-12T18:34:03.062Z,25.75
2022-09-12T18:36:31.010Z,26.35
2022-09-12T18:38:59.646Z,31.80
2022-09-12T18:41:27.217Z,30.92
2022-09-12T18:43:56.230Z,30.27
2022-09-12T18:46:23.553Z,27.70
2022-09-12T18:48:50.799Z,31.38
2022-09-12T18:51:23.455Z,31.35
2022-09-12T18:53:53.253Z,27.70
2022-09-12T18:56:21.118Z,27.33
2022-09-12T18:58:55.009Z,48.08
2022-09-12T19:01:27.871Z,30.98
2022-09-12T19:03:55.524Z,49.70
2022-09-12T19:06:26.025Z,34.00
2022-09-12T19:08:54.850Z,51.22
2022-09-12T19:11:22.690Z,36.83
2022-09-12T19:13:51.467Z,33.70
2022-09-12T19:16:22.075Z,45.13
2022-09-12T19:18:50.270Z,44.58
2022-09-12T19:21:20.419Z,65.45
2022-09-12T19:23:47.569Z,34.47
2022-09-12T19:26:16.673Z,53.28
2022-09-12T19:28:45.830Z,42.22
2022-09-12T19:31:15.548Z,71.03
2022-09-12T19:33:42.942Z,63.95
2022-09-12T19:36:34.039Z,60.03
2022-09-12T19:39:00.703Z,34.63
2022-09-12T19:41:28.007Z,43.60
2022-09-12T19:43:58.040Z,38.05
2022-09-12T19:46:26.347Z,40.47
2022-09-12T19:48:53.761Z,56.00
2022-09-12T19:51:22.735Z,69.82
2022-09-12T19:53:50.565Z,46.20
2022-09-12T19:56:21.086Z,67.93
2022-09-12T19:58:55.149Z,84.85
2022-09-12T20:01:28.906Z,84.15
2022-09-12T20:03:57.689Z,75.50
2022-09-12T20:06:25.867Z,65.80
2022-09-12T20:08:52.997Z,94.60
2022-09-12T20:11:22.381Z,57.00
2022-09-12T20:13:49.825Z,64.07
2022-09-12T20:16:29.950Z,63.50
2022-09-12T20:19:00.296Z,59.58
2022-09-12T20:21:34.449Z,60.63
2022-09-12T20:24:12.995Z,65.20
2022-09-12T20:26:40.735Z,69.28
2022-09-12T20:29:08.713Z,112.00
2022-09-12T20:31:37.172Z,123.85
2022-09-12T20:34:05.427Z,132.88
2022-09-12T20:36:33.107Z,143.10
2022-09-12T20:39:02.748Z,75.25
2022-09-12T20:41:33.487Z,95.80
2022-09-12T20:44:00.537Z,155.35
2022-09-12T20:46:28.969Z,95.85
2022-09-12T20:48:56.602Z,84.93
2022-09-12T20:51:26.896Z,105.10
2022-09-12T20:53:55.050Z,79.97
2022-09-12T20:56:23.192Z,129.55
2022-09-12T20:58:51.232Z,136.15
2022-09-12T21:01:18.566Z,93.18
2022-09-12T21:03:46.389Z,130.25
2022-09-12T21:06:17.244Z,126.55
2022-09-12T21:08:45.851Z,107.57
2022-09-12T21:11:13.902Z,137.75
2022-09-12T21:13:41.456Z,130.07
2022-09-12T21:16:13.208Z,123.35
2022-09-12T21:18:41.523Z,112.68
2022-09-12T21:21:10.887Z,93.70
2022-09-12T21:23:38.715Z,82.45
2022-09-12T21:26:06.077Z,83.50
2022-09-12T21:28:33.266Z,71.95
2022-09-12T21:31:00.865Z,55.08
2022-09-12T21:33:28.521Z,66.68
2022-09-12T21:35:55.590Z,59.50
2022-09-12T21:38:22.845Z,44.63
2022-09-12T21:40:49.964Z,39.63
2022-09-12T21:43:17.032Z,37.90
2022-09-12T21:45:44.373Z,43.15
2022-09-12T21:48:11.479Z,26.63
2022-09-12T21:50:38.646Z,30.88
2022-09-12T21:53:05.809Z,29.20
2022-09-12T21:55:33.485Z,29.15
2022-09-12T21:58:00.500Z,21.85
2022-09-12T22:00:27.605Z,18.50
2022-09-12T22:02:54.694Z,20.45
2022-09-12T22:05:21.991Z,23.60
2022-09-12T22:07:49.045Z,26.23
2022-09-12T22:10:16.264Z,24.13
2022-09-12T22:12:46.074Z,23.52
2022-09-12T22:15:38.867Z,96.95
2022-09-12T22:18:01.605Z,103.38
2022-09-12T22:20:28.974Z,86.43
2022-09-12T22:23:14.520Z,110.90
2022-09-12T22:25:41.612Z,62.25
2022-09-12T22:28:09.023Z,34.20
2022-09-12T22:30:36.302Z,36.53
2022-09-12T22:33:03.406Z,28.58
2022-09-12T22:35:30.542Z,27.77
2022-09-12T22:37:57.671Z,30.88
2022-09-12T22:40:24.794Z,24.00
2022-09-12T22:42:53.303Z,23.42
2022-09-12T22:45:20.340Z,29.67
2022-09-12T22:47:47.589Z,28.98
2022-09-12T22:50:14.917Z,24.98
2022-09-12T22:52:42.966Z,25.70
2022-09-12T22:55:10.735Z,21.73
2022-09-12T22:57:38.164Z,22.65
2022-09-12T23:00:10.950Z,16.60
2022-09-12T23:02:38.556Z,16.70
2022-09-12T23:05:06.493Z,27.50
2022-09-12T23:07:33.905Z,24.33
2022-09-12T23:10:01.581Z,22.13
2022-09-12T23:12:28.615Z,22.48
2022-09-12T23:14:55.722Z,22.02
2022-09-12T23:17:22.766Z,23.08
2022-09-12T23:19:49.790Z,19.67
2022-09-12T23:22:16.890Z,20.05
2022-09-12T23:24:44.078Z,28.02
2022-09-12T23:27:11.147Z,25.83
2022-09-12T23:29:38.361Z,21.92
2022-09-12T23:32:05.664Z,23.67
2022-09-12T23:34:34.234Z,34.20
2022-09-12T23:37:01.287Z,27.67
2022-09-12T23:39:28.415Z,30.80
2022-09-12T23:41:55.922Z,24.60
2022-09-12T23:44:23.019Z,27.08
2022-09-12T23:46:50.161Z,31.50
2022-09-12T23:49:17.216Z,31.58
2022-09-12T23:51:45.106Z,20.25
2022-09-12T23:54:12.288Z,20.05
2022-09-12T23:56:39.372Z,24.65
2022-09-12T23:59:06.507Z,26.50
